Time;durP1;ratioP1;P1;durP2;ratioP2;P2;SDS_P1;SDS_P2;PMS_P1;PMS_P2;Temp;Humidity;BMP_temperature;BMP_pressure;BME280_temperature;BME280_humidity;BME280_pressure;Samples;Min_cycle;Max_cycle;Signal;HPM_P1;HPM_P2
2022/11/12 00:01:00;;;;;;;50.75;6.60;;;5.70;99.90;;;;;;8324806;28;20093;-84
2022/11/12 00:05:05;;;;;;;44.17;6.53;;;6.00;99.90;;;;;;8322159;28;20025;-84
2022/11/12 00:09:06;;;;;;;71.47;6.15;;;6.00;99.90;;;;;;8329539;28;20383;-84
2022/11/12 00:13:06;;;;;;;60.40;6.63;;;5.90;99.90;;;;;;8323305;28;20045;-84
2022/11/12 00:17:13;;;;;;;35.60;6.05;;;5.70;99.90;;;;;;8340057;28;20029;-84
2022/11/12 00:21:14;;;;;;;24.15;5.90;;;6.00;99.90;;;;;;8332671;28;20034;-84
2022/11/12 00:25:14;;;;;;;35.05;6.57;;;5.80;99.90;;;;;;8319188;28;20088;-84
2022/11/12 00:29:15;;;;;;;30.70;6.18;;;5.60;99.90;;;;;;8322383;28;20080;-84
2022/11/12 00:33:15;;;;;;;32.20;6.07;;;5.60;99.90;;;;;;8315309;28;20037;-84
2022/11/12 00:37:17;;;;;;;11.82;5.10;;;5.60;99.90;;;;;;8332614;28;20514;-84
2022/11/12 00:41:18;;;;;;;22.92;5.32;;;5.70;99.90;;;;;;8314940;28;20033;-83
2022/11/12 00:45:19;;;;;;;23.67;5.32;;;5.70;99.90;;;;;;8313741;28;20449;-83
2022/11/12 00:49:20;;;;;;;12.32;4.90;;;5.50;99.90;;;;;;8327423;28;20067;-83
2022/11/12 00:53:20;;;;;;;36.50;5.90;;;5.40;99.90;;;;;;8324639;28;20489;-84
2022/11/12 00:57:21;;;;;;;26.60;4.50;;;5.30;99.90;;;;;;8317510;28;20036;-83
2022/11/12 01:01:21;;;;;;;19.52;4.55;;;5.40;99.90;;;;;;8324886;28;20069;-83
2022/11/12 01:05:22;;;;;;;16.58;3.95;;;5.70;99.90;;;;;;8325879;28;20026;-83
2022/11/12 01:09:22;;;;;;;34.42;4.50;;;5.70;99.90;;;;;;8335383;28;20064;-83
2022/11/12 01:13:23;;;;;;;8.30;3.50;;;5.70;99.90;;;;;;8333072;28;20025;-82
2022/11/12 01:17:23;;;;;;;23.02;3.60;;;5.50;99.90;;;;;;8313773;28;20032;-83
2022/11/12 01:21:26;;;;;;;56.40;4.53;;;5.40;99.90;;;;;;8309967;28;20029;-83
2022/11/12 01:25:27;;;;;;;41.70;5.18;;;5.30;99.90;;;;;;8318692;28;20516;-83
2022/11/12 01:29:27;;;;;;;8.25;3.33;;;5.10;99.90;;;;;;8301704;28;20014;-83
2022/11/12 01:33:28;;;;;;;61.15;5.20;;;5.10;99.90;;;;;;8313532;28;20052;-83
2022/11/12 01:37:28;;;;;;;56.17;4.50;;;5.30;99.90;;;;;;8321220;28;20553;-83
2022/11/12 01:41:32;;;;;;;37.47;4.95;;;5.40;99.90;;;;;;8316394;28;20026;-84
2022/11/12 01:45:33;;;;;;;30.05;4.47;;;5.20;99.90;;;;;;8301917;28;20021;-83
2022/11/12 01:49:57;;;;;;;31.80;4.35;;;5.30;99.90;;;;;;8310403;28;20029;-83
2022/11/12 01:54:01;;;;;;;10.02;3.67;;;5.10;99.90;;;;;;8319019;28;20036;-83
2022/11/12 01:58:12;;;;;;;37.72;4.88;;;5.30;99.90;;;;;;8294101;28;20050;-83
2022/11/12 02:02:12;;;;;;;29.10;5.00;;;5.30;99.90;;;;;;8315900;28;20026;-84
2022/11/12 02:06:14;;;;;;;9.80;4.22;;;5.20;99.90;;;;;;8310430;28;20118;-83
2022/11/12 02:10:15;;;;;;;28.42;4.65;;;5.30;99.90;;;;;;8316399;28;20029;-83
2022/11/12 02:14:16;;;;;;;30.85;4.93;;;5.20;99.90;;;;;;8315521;28;20517;-84
2022/11/12 02:18:16;;;;;;;16.27;4.25;;;5.20;99.90;;;;;;8325366;28;20038;-84
2022/11/12 02:22:17;;;;;;;30.23;5.07;;;5.30;99.90;;;;;;8308959;28;20563;-84
2022/11/12 02:26:18;;;;;;;9.38;3.85;;;5.30;99.90;;;;;;8307064;28;20030;-84
2022/11/12 02:30:19;;;;;;;15.98;3.88;;;5.40;99.90;;;;;;8318641;28;20486;-84
2022/11/12 02:34:20;;;;;;;13.98;3.95;;;5.50;99.90;;;;;;8320010;28;20039;-84
2022/11/12 02:38:21;;;;;;;23.60;3.63;;;5.60;99.90;;;;;;8319700;28;20090;-84
2022/11/12 02:42:24;;;;;;;37.13;4.55;;;5.60;99.90;;;;;;8317987;28;20053;-84
2022/11/12 02:46:25;;;;;;;13.18;3.38;;;5.70;99.90;;;;;;8310108;28;20030;-84
2022/11/12 02:50:25;;;;;;;40.10;4.32;;;5.50;99.90;;;;;;8314430;28;20034;-84
2022/11/12 02:54:26;;;;;;;9.65;3.97;;;5.60;99.90;;;;;;8312994;28;20532;-84
2022/11/12 02:58:27;;;;;;;16.30;3.50;;;5.50;99.90;;;;;;8313415;28;20049;-84
2022/11/12 03:02:28;;;;;;;9.85;4.20;;;5.50;99.90;;;;;;8309594;28;20057;-84
2022/11/12 03:06:28;;;;;;;23.50;4.38;;;5.30;99.90;;;;;;8324574;28;20029;-84
2022/11/12 03:10:29;;;;;;;11.50;4.07;;;5.10;99.90;;;;;;8307296;28;20053;-84
2022/11/12 03:14:30;;;;;;;15.38;4.47;;;5.30;99.90;;;;;;8327262;28;20025;-84
2022/11/12 03:18:30;;;;;;;14.00;4.28;;;5.10;99.90;;;;;;8308148;28;20026;-84
2022/11/12 03:22:31;;;;;;;5.45;4.05;;;5.20;99.90;;;;;;8311709;28;20459;-84
2022/11/12 03:26:31;;;;;;;20.63;4.28;;;5.30;99.90;;;;;;8323663;28;20036;-84
2022/11/12 03:30:35;;;;;;;8.38;4.18;;;5.20;99.90;;;;;;8322231;28;20021;-83
2022/11/12 03:34:37;;;;;;;10.30;4.13;;;5.30;99.90;;;;;;8306505;28;20034;-84
2022/11/12 03:38:37;;;;;;;4.93;3.45;;;5.30;99.90;;;;;;8327016;28;20589;-84
2022/11/12 03:42:38;;;;;;;12.63;4.18;;;5.30;99.90;;;;;;8306351;28;20048;-84
2022/11/12 03:46:38;;;;;;;5.57;4.03;;;5.40;99.90;;;;;;8315540;28;20513;-84
2022/11/12 03:50:39;;;;;;;6.43;3.95;;;5.50;99.90;;;;;;8316949;28;20079;-83
2022/11/12 03:54:39;;;;;;;10.30;4.00;;;5.40;99.90;;;;;;8325954;28;20022;-83
2022/11/12 03:58:40;;;;;;;10.23;3.92;;;5.30;99.90;;;;;;8328145;28;20053;-84
2022/11/12 04:02:40;;;;;;;5.57;4.13;;;5.20;99.90;;;;;;8325282;28;20029;-84
2022/11/12 04:11:09;;;;;;;10.77;3.85;;;5.10;99.90;;;;;;8322057;28;20115;-84
2022/11/12 04:15:16;;;;;;;6.10;3.83;;;4.90;99.90;;;;;;8322692;28;20029;-84
2022/11/12 04:23:56;;;;;;;7.05;4.15;;;4.90;99.90;;;;;;8314755;28;20113;-83
2022/11/12 04:28:00;;;;;;;6.63;4.07;;;5.00;99.90;;;;;;8328965;28;20026;-84
2022/11/12 04:32:00;;;;;;;6.53;3.78;;;4.90;99.90;;;;;;8336859;28;20025;-84
2022/11/12 04:36:01;;;;;;;7.28;4.15;;;4.90;99.90;;;;;;8332181;28;20091;-84
2022/11/12 04:44:58;;;;;;;10.25;4.43;;;4.90;99.90;;;;;;8316680;28;20021;-84
2022/11/12 04:48:42;;;;;;;12.43;4.32;;;5.00;99.90;;;;;;8315259;28;20057;-84
2022/11/12 04:52:43;;;;;;;8.60;4.82;;;5.00;99.90;;;;;;8332185;28;20085;-83
2022/11/12 04:56:43;;;;;;;18.63;5.05;;;5.00;99.90;;;;;;8334268;28;20402;-84
2022/11/12 05:00:44;;;;;;;8.50;4.47;;;5.20;99.90;;;;;;8319059;28;20081;-84
2022/11/12 05:04:44;;;;;;;9.95;4.45;;;4.90;99.90;;;;;;8332646;28;20056;-84
2022/11/12 05:08:45;;;;;;;16.73;4.50;;;4.90;99.90;;;;;;8321055;28;20122;-84
2022/11/12 05:12:46;;;;;;;14.65;4.82;;;4.70;99.90;;;;;;8304830;28;20029;-83
2022/11/12 05:16:47;;;;;;;14.50;4.82;;;4.80;99.90;;;;;;8318193;28;20545;-84
2022/11/12 05:20:50;;;;;;;7.47;4.90;;;4.80;99.90;;;;;;8320736;28;20037;-83
2022/11/12 05:24:50;;;;;;;10.60;5.50;;;4.90;99.90;;;;;;8321591;28;20490;-83
2022/11/12 05:28:51;;;;;;;11.60;5.53;;;5.20;99.90;;;;;;8312828;28;20120;-83
2022/11/12 05:32:51;;;;;;;10.45;6.20;;;5.10;99.90;;;;;;8304305;28;20053;-84
2022/11/12 05:36:52;;;;;;;12.32;6.32;;;5.10;99.90;;;;;;8305188;28;20061;-84
2022/11/12 05:40:53;;;;;;;13.10;5.88;;;5.10;99.90;;;;;;8303784;28;20025;-83
2022/11/12 05:44:53;;;;;;;5.88;4.30;;;5.40;99.90;;;;;;8300602;28;20026;-83
2022/11/12 05:48:54;;;;;;;14.18;5.38;;;5.40;99.90;;;;;;8336024;28;20045;-83
2022/11/12 05:52:54;;;;;;;6.97;5.20;;;5.40;99.90;;;;;;8297054;28;20029;-84
2022/11/12 05:56:55;;;;;;;12.00;4.55;;;5.10;99.90;;;;;;8304906;28;20485;-84
2022/11/12 06:00:56;;;;;;;13.68;4.18;;;5.30;99.90;;;;;;8304787;28;20045;-84
2022/11/12 06:04:56;;;;;;;7.30;4.35;;;5.00;99.90;;;;;;8312181;28;20030;-84
2022/11/12 06:08:57;;;;;;;6.35;3.92;;;5.10;99.90;;;;;;8301905;28;20025;-83
2022/11/12 06:12:58;;;;;;;12.35;4.78;;;5.20;99.90;;;;;;8322476;28;20023;-84
2022/11/12 06:16:58;;;;;;;7.25;4.97;;;5.10;99.90;;;;;;8318376;28;20022;-84
2022/11/12 06:21:22;;;;;;;11.00;4.60;;;4.80;99.90;;;;;;8299808;28;20475;-84
2022/11/12 06:25:23;;;;;;;18.75;4.85;;;4.60;99.90;;;;;;8322645;28;20029;-84
2022/11/12 06:29:24;;;;;;;17.80;5.13;;;4.60;99.90;;;;;;8292831;28;20026;-84
2022/11/12 06:33:24;;;;;;;13.35;5.20;;;4.60;99.90;;;;;;8299785;28;20038;-83
2022/11/12 06:37:25;;;;;;;18.92;4.57;;;4.90;99.90;;;;;;8306820;28;20044;-84
2022/11/12 06:41:25;;;;;;;9.68;6.43;;;5.10;99.90;;;;;;8318817;28;20060;-83
2022/11/12 06:45:26;;;;;;;9.55;5.20;;;5.00;99.90;;;;;;8302816;28;20026;-84
2022/11/12 06:49:27;;;;;;;13.40;4.65;;;4.90;99.90;;;;;;8300627;28;20054;-84
2022/11/12 06:53:27;;;;;;;11.52;4.95;;;5.00;99.90;;;;;;8295317;28;20029;-84
2022/11/12 06:57:28;;;;;;;11.48;4.40;;;4.90;99.90;;;;;;8303383;28;20037;-83
2022/11/12 07:01:28;;;;;;;10.63;5.70;;;5.00;99.90;;;;;;8312233;28;20022;-84
2022/11/12 07:05:30;;;;;;;9.07;5.57;;;5.20;99.90;;;;;;8314175;28;20041;-84
2022/11/12 07:09:30;;;;;;;10.63;5.57;;;4.90;99.90;;;;;;8306302;28;20024;-84
2022/11/12 07:13:32;;;;;;;11.45;5.72;;;5.20;99.90;;;;;;8303577;28;20364;-84
2022/11/12 07:17:32;;;;;;;13.10;6.50;;;5.30;99.90;;;;;;8313501;28;20053;-84
2022/11/12 07:21:33;;;;;;;12.32;5.68;;;5.60;99.90;;;;;;8331872;28;20401;-84
2022/11/12 07:25:33;;;;;;;19.48;8.25;;;5.80;99.90;;;;;;8317359;28;20022;-84
2022/11/12 07:29:34;;;;;;;17.25;7.03;;;5.70;99.90;;;;;;8304131;28;20029;-84
2022/11/12 07:33:34;;;;;;;13.07;5.32;;;5.60;99.90;;;;;;8310609;28;20060;-84
2022/11/12 07:37:35;;;;;;;13.30;6.22;;;5.50;99.90;;;;;;8302543;28;20026;-84
2022/11/12 07:41:36;;;;;;;15.35;5.80;;;5.70;99.90;;;;;;8310522;28;20029;-84
2022/11/12 07:45:36;;;;;;;13.27;7.10;;;5.60;99.90;;;;;;8327551;28;20048;-84
2022/11/12 07:49:37;;;;;;;14.25;6.47;;;5.60;99.90;;;;;;8329661;28;20420;-84
2022/11/12 07:53:37;;;;;;;13.38;7.03;;;5.70;99.90;;;;;;8325795;28;20025;-84
2022/11/12 07:57:38;;;;;;;15.55;7.97;;;5.80;99.90;;;;;;8322346;28;20022;-84
2022/11/12 08:01:40;;;;;;;27.42;10.18;;;5.80;99.90;;;;;;8322590;28;20037;-85
2022/11/12 08:05:40;;;;;;;14.32;6.47;;;5.80;99.90;;;;;;8313162;28;20410;-84
2022/11/12 08:09:41;;;;;;;18.30;7.38;;;6.10;99.90;;;;;;8317835;28;20101;-84
2022/11/12 08:13:41;;;;;;;21.98;7.05;;;6.30;99.90;;;;;;8331062;28;20032;-84
2022/11/12 08:17:42;;;;;;;29.25;7.95;;;6.30;99.90;;;;;;8322553;28;20030;-84
2022/11/12 08:21:43;;;;;;;18.15;8.82;;;6.40;99.90;;;;;;8327783;28;20105;-84
2022/11/12 08:25:43;;;;;;;26.90;9.38;;;6.60;99.90;;;;;;8323606;28;20088;-84
2022/11/12 08:29:44;;;;;;;14.82;8.25;;;6.80;99.90;;;;;;8312996;28;20116;-84
2022/11/12 08:33:44;;;;;;;27.25;8.35;;;6.80;99.90;;;;;;8327658;28;20037;-84
2022/11/12 08:37:45;;;;;;;17.83;8.57;;;7.10;99.90;;;;;;8311030;28;20044;-84
2022/11/12 08:41:45;;;;;;;19.73;8.80;;;7.00;99.90;;;;;;8319850;28;20498;-84
2022/11/12 08:45:47;;;;;;;20.08;9.35;;;7.00;99.90;;;;;;8314222;28;20037;-82
2022/11/12 08:49:48;;;;;;;27.02;8.35;;;7.40;99.90;;;;;;8322574;28;20026;-84
2022/11/12 08:53:51;;;;;;;17.70;8.68;;;7.60;99.90;;;;;;8335893;28;20025;-85
2022/11/12 08:57:51;;;;;;;32.58;13.15;;;7.50;99.90;;;;;;8311510;28;20101;-84
2022/11/12 09:01:52;;;;;;;15.07;8.23;;;7.80;99.90;;;;;;8334992;28;20030;-84
2022/11/12 09:05:53;;;;;;;13.38;7.57;;;7.80;99.90;;;;;;8327601;28;20030;-83
2022/11/12 09:09:53;;;;;;;15.23;8.30;;;8.10;99.90;;;;;;8317075;28;20025;-84
2022/11/12 09:13:54;;;;;;;14.85;7.70;;;8.10;99.90;;;;;;8315398;28;21364;-84
2022/11/12 09:17:56;;;;;;;19.17;7.60;;;8.00;99.90;;;;;;8305649;28;20079;-84
2022/11/12 09:21:57;;;;;;;16.85;8.75;;;8.10;99.90;;;;;;8305373;28;20474;-84
2022/11/12 09:25:57;;;;;;;15.45;8.05;;;8.50;99.90;;;;;;8305255;28;20033;-84
2022/11/12 09:29:58;;;;;;;16.15;8.23;;;8.50;99.90;;;;;;8307289;28;20017;-84
2022/11/12 09:33:59;;;;;;;13.27;7.28;;;8.50;99.90;;;;;;8298121;28;20157;-84
2022/11/12 09:37:59;;;;;;;15.45;7.68;;;8.90;99.90;;;;;;8332812;28;20022;-84
2022/11/12 09:42:11;;;;;;;14.93;8.60;;;8.80;99.90;;;;;;8311475;28;20026;-85
2022/11/12 09:46:43;;;;;;;17.98;8.20;;;8.90;99.90;;;;;;8313672;28;20026;-84
2022/11/12 09:51:01;;;;;;;12.50;7.15;;;9.10;99.90;;;;;;8296061;28;20026;-85
2022/11/12 09:55:12;;;;;;;14.30;8.13;;;9.30;99.90;;;;;;8306956;28;20022;-84
2022/11/12 09:59:13;;;;;;;15.15;8.90;;;9.40;99.90;;;;;;8315722;28;20523;-84
2022/11/12 10:03:36;;;;;;;13.38;7.68;;;9.50;99.90;;;;;;8306219;28;20644;-84
2022/11/12 10:07:55;;;;;;;11.82;7.57;;;9.50;99.90;;;;;;8312935;28;20076;-84
2022/11/12 10:12:32;;;;;;;16.42;8.88;;;9.60;99.90;;;;;;8307418;28;20076;-84
2022/11/12 10:16:48;;;;;;;13.32;8.10;;;9.70;99.90;;;;;;8296744;28;20038;-85
2022/11/12 10:21:04;;;;;;;13.98;8.18;;;9.90;99.90;;;;;;8300196;28;20029;-84
2022/11/12 10:25:17;;;;;;;13.20;7.75;;;10.20;99.90;;;;;;8312609;28;20024;-85
2022/11/12 10:29:30;;;;;;;13.63;7.88;;;10.00;99.90;;;;;;8299375;28;20053;-84
2022/11/12 10:33:31;;;;;;;12.18;7.50;;;10.00;99.90;;;;;;8307312;28;20025;-84
2022/11/12 10:37:38;;;;;;;14.57;8.27;;;10.20;99.90;;;;;;8311207;28;20057;-85
2022/11/12 10:41:39;;;;;;;14.15;8.82;;;10.20;99.90;;;;;;8308336;28;20025;-85
2022/11/12 10:45:39;;;;;;;13.27;7.72;;;10.30;99.90;;;;;;8307882;28;20117;-84
2022/11/12 10:49:40;;;;;;;13.60;7.93;;;10.20;99.90;;;;;;8314458;28;20505;-85
2022/11/12 10:53:40;;;;;;;13.57;7.90;;;10.10;99.90;;;;;;8302084;28;20026;-85
2022/11/12 10:57:41;;;;;;;12.25;6.93;;;9.70;99.90;;;;;;8299454;28;20029;-85
2022/11/12 11:01:43;;;;;;;14.27;8.10;;;9.60;99.90;;;;;;8309938;28;20029;-85
2022/11/12 11:05:55;;;;;;;12.77;7.45;;;9.10;99.90;;;;;;8305564;28;20025;-84
2022/11/12 11:09:59;;;;;;;13.20;7.55;;;9.20;99.90;;;;;;8302004;28;20033;-85
2022/11/12 11:14:20;;;;;;;10.20;6.82;;;9.40;99.90;;;;;;8326574;28;20022;-85
2022/11/12 11:18:21;;;;;;;11.57;6.88;;;9.70;99.90;;;;;;8309599;28;20076;-85
2022/11/12 11:22:26;;;;;;;10.07;6.47;;;9.90;99.90;;;;;;8310014;28;20026;-85
2022/11/12 11:27:04;;;;;;;9.63;6.28;;;11.00;99.90;;;;;;8312255;28;20030;-85
2022/11/12 11:31:22;;;;;;;11.45;6.07;;;11.70;99.90;;;;;;8312762;28;20014;-85
2022/11/12 11:36:00;;;;;;;9.18;5.60;;;12.00;99.90;;;;;;8309033;28;20033;-86
2022/11/12 11:40:09;;;;;;;9.60;6.32;;;11.80;99.90;;;;;;8313219;28;20017;-86
2022/11/12 11:44:24;;;;;;;9.32;5.82;;;11.90;99.90;;;;;;8317402;28;20116;-86
2022/11/12 11:48:56;;;;;;;7.53;5.10;;;12.10;99.90;;;;;;8309893;28;20026;-85
2022/11/12 11:53:05;;;;;;;9.23;6.30;;;12.10;99.90;;;;;;8309451;28;20048;-85
2022/11/12 11:57:14;;;;;;;8.73;6.13;;;11.60;99.90;;;;;;8305613;28;20478;-86
2022/11/12 12:01:35;;;;;;;7.80;4.85;;;11.70;99.90;;;;;;8321116;28;20044;-86
2022/11/12 12:06:08;;;;;;;;;;;11.70;99.90;;;;;;8311146;28;20037;-85
2022/11/12 12:10:24;;;;;;;8.95;5.90;;;11.90;99.90;;;;;;8285272;28;20459;-86
2022/11/12 12:14:46;;;;;;;8.32;5.38;;;11.70;99.90;;;;;;8308519;28;20057;-86
2022/11/12 12:19:05;;;;;;;7.82;5.55;;;11.90;99.90;;;;;;8300229;28;20026;-86
2022/11/12 12:23:15;;;;;;;6.80;4.93;;;11.40;99.90;;;;;;8312726;28;20037;-86
2022/11/12 12:27:15;;;;;;;;;;;11.40;99.90;;;;;;8316998;28;20025;-86
2022/11/12 12:31:19;;;;;;;;;;;11.20;99.90;;;;;;8311129;28;19967;-86
2022/11/12 12:35:26;;;;;;;6.85;4.97;;;11.40;99.90;;;;;;8320931;28;19936;-86
2022/11/12 12:39:55;;;;;;;7.00;4.90;;;11.30;99.90;;;;;;8300998;28;20052;-86
2022/11/12 12:44:02;;;;;;;8.60;5.20;;;11.20;99.90;;;;;;8300331;28;20050;-85
2022/11/12 12:48:16;;;;;;;8.52;5.45;;;10.70;99.90;;;;;;8312606;28;20021;-85
2022/11/12 12:52:17;;;;;;;8.02;5.63;;;10.50;99.90;;;;;;8315080;28;20025;-85
2022/11/12 12:56:30;;;;;;;7.68;5.25;;;10.50;99.90;;;;;;8322635;28;20087;-86
2022/11/12 13:00:37;;;;;;;8.57;5.18;;;10.50;99.90;;;;;;8305310;28;20033;-86
2022/11/12 13:04:56;;;;;;;8.23;5.85;;;10.50;99.90;;;;;;8310730;28;20161;-85
2022/11/12 13:09:23;;;;;;;8.68;5.85;;;10.20;99.90;;;;;;8327199;28;20048;-85
2022/11/12 13:13:28;;;;;;;10.98;6.13;;;10.20;99.90;;;;;;8321107;28;20083;-86
2022/11/12 13:17:46;;;;;;;10.85;5.95;;;10.50;99.90;;;;;;8314751;28;20114;-86
2022/11/12 13:22:06;;;;;;;9.25;5.63;;;10.70;99.90;;;;;;8304739;28;20033;-85
2022/11/12 13:26:36;;;;;;;7.68;5.47;;;10.50;99.90;;;;;;8303857;28;20411;-85
2022/11/12 13:30:39;;;;;;;8.85;5.78;;;10.50;99.90;;;;;;8320351;28;20030;-86
2022/11/12 13:34:40;;;;;;;7.32;5.38;;;10.30;99.90;;;;;;8322994;28;20064;-86
2022/11/12 13:38:41;;;;;;;7.93;5.72;;;10.00;99.90;;;;;;8336936;28;20059;-85
2022/11/12 13:42:48;;;;;;;10.27;6.32;;;9.80;99.90;;;;;;8310629;28;20076;-86
2022/11/12 13:46:55;;;;;;;8.13;5.85;;;9.50;99.90;;;;;;8394929;28;20382;-86
2022/11/12 13:51:10;;;;;;;7.88;5.13;;;9.30;99.90;;;;;;8409695;28;20147;-86
2022/11/12 13:55:17;;;;;;;9.73;6.57;;;9.00;99.90;;;;;;8374655;28;20588;-86
2022/11/12 13:59:20;;;;;;;10.20;6.45;;;8.90;99.90;;;;;;8389032;28;20151;-86
2022/11/12 14:03:21;;;;;;;8.90;6.07;;;8.80;99.90;;;;;;8373497;28;20051;-86
2022/11/12 14:07:35;;;;;;;11.35;7.35;;;8.70;99.90;;;;;;8376230;28;20031;-86
2022/11/12 14:12:02;;;;;;;10.82;6.88;;;8.70;99.90;;;;;;8374681;28;20507;-86
2022/11/12 14:16:21;;;;;;;11.65;6.53;;;8.80;99.90;;;;;;8358192;28;20124;-85
2022/11/12 14:20:31;;;;;;;12.20;7.32;;;8.90;99.90;;;;;;8366104;28;20405;-86
2022/11/12 14:24:32;;;;;;;10.35;6.78;;;8.80;99.90;;;;;;8366542;28;20795;-86
2022/11/12 14:28:35;;;;;;;10.00;6.78;;;8.90;99.90;;;;;;8359767;28;20037;-86
2022/11/12 14:32:42;;;;;;;10.48;6.97;;;8.90;99.90;;;;;;8369550;28;20025;-86
2022/11/12 14:36:44;;;;;;;12.00;7.05;;;8.70;99.90;;;;;;8370785;28;20501;-86
2022/11/12 14:40:49;;;;;;;12.60;7.20;;;8.70;99.90;;;;;;8370383;28;20051;-86
2022/11/12 14:44:50;;;;;;;9.27;6.63;;;8.60;99.90;;;;;;8364984;28;20068;-85
2022/11/12 14:48:56;;;;;;;11.15;6.80;;;8.50;99.90;;;;;;8376493;28;20025;-86
2022/11/12 14:53:03;;;;;;;9.38;6.25;;;8.70;99.90;;;;;;8372062;28;20018;-87
2022/11/12 14:57:04;;;;;;;12.75;7.65;;;8.50;99.90;;;;;;8365134;28;20047;-87
2022/11/12 15:01:24;;;;;;;11.48;6.90;;;8.30;99.90;;;;;;8356943;28;20075;-87
2022/11/12 15:05:28;;;;;;;13.93;7.90;;;8.40;99.90;;;;;;8346850;28;20053;-86
2022/11/12 15:09:37;;;;;;;13.73;7.70;;;8.20;99.90;;;;;;8347620;28;20022;-87
2022/11/12 15:13:40;;;;;;;11.80;7.85;;;8.10;99.90;;;;;;8350089;28;20036;-87
2022/11/12 15:17:41;;;;;;;12.07;8.00;;;8.10;99.90;;;;;;8341095;28;20036;-88
2022/11/12 15:21:52;;;;;;;13.32;8.52;;;7.90;99.90;;;;;;8343658;28;20029;-88
2022/11/12 15:26:00;;;;;;;13.68;8.82;;;7.70;99.90;;;;;;8346469;28;20497;-87
2022/11/12 15:30:17;;;;;;;14.35;8.40;;;7.90;99.90;;;;;;8353066;28;20014;-88
2022/11/12 15:34:33;;;;;;;14.20;8.32;;;7.70;99.90;;;;;;8353884;28;20091;-87
2022/11/12 15:38:36;;;;;;;14.98;8.80;;;7.90;99.90;;;;;;8339550;28;20028;-87
2022/11/12 15:42:40;;;;;;;13.93;8.32;;;7.80;99.90;;;;;;8344358;28;20037;-87
